Time;durP1;ratioP1;P1;durP2;ratioP2;P2;SDS_P1;SDS_P2;PMS_P1;PMS_P2;Temp;Humidity;BMP_temperature;BMP_pressure;BME280_temperature;BME280_humidity;BME280_pressure;Samples;Min_cycle;Max_cycle;Signal;HPM_P1;HPM_P2
2022/01/22 00:01:49;;;;;;;10.00;8.27;;;;;;;;;;5071380;28;20452;-77
2022/01/22 00:04:16;;;;;;;9.20;8.40;;;;;;;;;;5056938;28;20468;-78
2022/01/22 00:06:43;;;;;;;11.37;8.73;;;;;;;;;;5051223;28;20445;-77
2022/01/22 00:09:11;;;;;;;20.23;8.90;;;;;;;;;;5050831;28;21271;-78
2022/01/22 00:11:50;;;;;;;9.97;8.97;;;;;;;;;;5050473;28;20453;-77
2022/01/22 00:14:26;;;;;;;9.90;8.90;;;;;;;;;;5051056;28;20802;-77
2022/01/22 00:16:54;;;;;;;14.30;9.57;;;;;;;;;;5051214;28;20491;-79
2022/01/22 00:19:21;;;;;;;11.30;9.10;;;;;;;;;;5050928;28;20473;-78
2022/01/22 00:21:48;;;;;;;9.10;7.33;;;;;;;;;;5050546;28;20442;-79
2022/01/22 00:24:15;;;;;;;8.20;7.40;;;;;;;;;;5050313;28;20865;-78
2022/01/22 00:26:44;;;;;;;9.97;7.80;;;;;;;;;;5051086;28;20448;-77
2022/01/22 00:29:11;;;;;;;8.63;7.73;;;;;;;;;;5050613;28;20462;-76
2022/01/22 00:31:39;;;;;;;9.47;8.10;;;;;;;;;;5051164;28;20504;-77
2022/01/22 00:34:06;;;;;;;10.07;8.30;;;;;;;;;;5050366;28;20450;-77
2022/01/22 00:36:34;;;;;;;10.17;7.60;;;;;;;;;;5050445;28;20508;-77
2022/01/22 00:39:01;;;;;;;10.80;8.10;;;;;;;;;;5051485;28;21000;-76
2022/01/22 00:41:28;;;;;;;9.33;7.37;;;;;;;;;;5051290;28;20446;-77
2022/01/22 00:43:56;;;;;;;11.60;7.80;;;;;;;;;;5050513;28;20482;-77
2022/01/22 00:46:23;;;;;;;12.97;7.67;;;;;;;;;;5050750;28;20458;-79
2022/01/22 00:48:50;;;;;;;8.60;7.77;;;;;;;;;;5050988;28;20458;-77
2022/01/22 00:51:17;;;;;;;8.67;7.77;;;;;;;;;;5051201;28;20464;-77
2022/01/22 00:53:45;;;;;;;8.43;7.57;;;;;;;;;;5051111;28;20438;-76
2022/01/22 00:56:13;;;;;;;9.33;8.03;;;;;;;;;;5050851;28;20496;-76
2022/01/22 00:58:40;;;;;;;8.87;6.90;;;;;;;;;;5050573;28;20482;-76
2022/01/22 01:01:09;;;;;;;7.97;7.20;;;;;;;;;;5051313;28;20453;-77
2022/01/22 01:03:36;;;;;;;8.53;7.10;;;;;;;;;;5061263;28;20477;-77
2022/01/22 01:06:03;;;;;;;8.63;7.77;;;;;;;;;;5062984;28;20989;-78
2022/01/22 01:08:33;;;;;;;10.97;8.43;;;;;;;;;;5069615;28;20549;-77
2022/01/22 01:11:00;;;;;;;10.23;8.33;;;;;;;;;;5070307;28;20945;-78
2022/01/22 01:13:30;;;;;;;10.20;9.03;;;;;;;;;;5070032;28;20442;-77
2022/01/22 01:16:02;;;;;;;9.70;8.30;;;;;;;;;;5062243;28;20881;-77
2022/01/22 01:32:19;;;;;;;11.37;9.40;;;;;;;;;;5062370;28;20447;-77
2022/01/22 01:34:49;;;;;;;12.43;8.97;;;;;;;;;;5063378;28;20925;-77
2022/01/22 01:37:18;;;;;;;9.20;8.33;;;;;;;;;;5060822;28;20450;-78
2022/01/22 01:39:49;;;;;;;12.37;9.07;;;;;;;;;;5057618;28;20457;-77
2022/01/22 01:42:19;;;;;;;11.83;9.00;;;;;;;;;;5053500;28;20524;-78
2022/01/22 01:44:47;;;;;;;12.20;8.87;;;;;;;;;;5066881;28;20507;-78
2022/01/22 01:47:16;;;;;;;10.20;9.10;;;;;;;;;;5069642;28;20491;-77
2022/01/22 01:49:43;;;;;;;12.17;8.90;;;;;;;;;;5069747;28;20449;-76
2022/01/22 01:52:17;;;;;;;10.93;9.10;;;;;;;;;;5070355;28;20441;-77
2022/01/22 01:55:01;;;;;;;13.67;9.00;;;;;;;;;;5070048;28;20486;-77
2022/01/22 02:00:13;;;;;;;9.80;8.67;;;;;;;;;;5067293;28;20437;-77
2022/01/22 02:02:41;;;;;;;11.73;10.20;;;;;;;;;;5069478;28;20465;-77
2022/01/22 02:05:10;;;;;;;12.70;10.53;;;;;;;;;;5062960;28;20521;-76
2022/01/22 02:07:41;;;;;;;12.70;11.00;;;;;;;;;;5085300;28;20466;-74
2022/01/22 02:10:09;;;;;;;11.57;10.27;;;;;;;;;;5095092;28;20436;-75
2022/01/22 02:13:10;;;;;;;13.17;10.10;;;;;;;;;;5095164;28;20798;-75
2022/01/22 02:23:53;;;;;;;11.77;9.60;;;;;;;;;;5094051;28;20504;-78
2022/01/22 02:26:20;;;;;;;17.13;11.50;;;;;;;;;;5077248;28;20434;-78
2022/01/22 02:28:49;;;;;;;10.70;9.60;;;;;;;;;;5069366;28;20540;-77
2022/01/22 02:31:24;;;;;;;12.80;9.90;;;;;;;;;;5069602;28;20445;-77
2022/01/22 02:33:57;;;;;;;13.40;10.73;;;;;;;;;;5071117;28;20792;-77
2022/01/22 02:36:32;;;;;;;12.37;9.97;;;;;;;;;;5066476;28;20454;-76
2022/01/22 02:39:09;;;;;;;12.00;9.17;;;;;;;;;;5063839;28;20509;-77
2022/01/22 02:41:40;;;;;;;10.30;9.30;;;;;;;;;;5073271;28;20893;-77
2022/01/22 02:44:10;;;;;;;11.93;9.50;;;;;;;;;;5073170;28;20507;-76
2022/01/22 02:46:41;;;;;;;12.07;10.10;;;;;;;;;;5073194;28;20944;-77
2022/01/22 02:49:08;;;;;;;12.33;10.80;;;;;;;;;;5073259;28;20496;-77
2022/01/22 02:51:36;;;;;;;13.83;10.20;;;;;;;;;;5073397;28;20450;-77
2022/01/22 02:54:04;;;;;;;13.73;10.30;;;;;;;;;;5072687;28;20519;-77
2022/01/22 02:56:31;;;;;;;17.30;10.97;;;;;;;;;;5073157;28;20465;-76
2022/01/22 02:58:59;;;;;;;11.67;10.47;;;;;;;;;;5075058;28;20466;-76
2022/01/22 03:01:26;;;;;;;14.53;9.70;;;;;;;;;;5079185;28;20444;-76
2022/01/22 03:03:53;;;;;;;11.17;9.40;;;;;;;;;;5079744;28;20834;-76
2022/01/22 03:06:20;;;;;;;14.70;10.50;;;;;;;;;;5078963;28;20441;-76
2022/01/22 03:08:48;;;;;;;12.10;10.33;;;;;;;;;;5081742;28;20462;-75
2022/01/22 03:11:24;;;;;;;11.80;10.60;;;;;;;;;;5073312;28;20938;-77
2022/01/22 03:14:27;;;;;;;12.60;9.37;;;;;;;;;;5072546;28;20491;-77
2022/01/22 03:16:54;;;;;;;10.33;9.33;;;;;;;;;;5072137;28;20464;-76
2022/01/22 03:19:43;;;;;;;12.30;9.87;;;;;;;;;;5072297;28;20466;-77
2022/01/22 03:22:17;;;;;;;10.77;9.67;;;;;;;;;;5072355;28;20436;-75
2022/01/22 03:27:31;;;;;;;12.87;11.27;;;;;;;;;;5072416;28;20440;-76
2022/01/22 03:29:59;;;;;;;13.30;11.57;;;;;;;;;;5072204;28;20488;-75
2022/01/22 03:32:30;;;;;;;15.80;11.10;;;;;;;;;;5071997;28;20933;-75
2022/01/22 03:35:01;;;;;;;11.83;10.50;;;;;;;;;;5072056;28;20445;-77
2022/01/22 03:37:29;;;;;;;10.20;9.20;;;;;;;;;;5072349;28;20470;-76
2022/01/22 03:39:57;;;;;;;13.20;11.50;;;;;;;;;;5071950;28;20475;-77
2022/01/22 03:42:24;;;;;;;16.83;10.70;;;;;;;;;;5072082;28;20449;-75
2022/01/22 03:44:51;;;;;;;14.13;11.67;;;;;;;;;;5070900;28;20473;-76
2022/01/22 03:47:18;;;;;;;11.90;10.60;;;;;;;;;;5071558;28;20446;-78
2022/01/22 03:49:46;;;;;;;12.83;11.57;;;;;;;;;;5071316;28;20445;-78
2022/01/22 03:52:13;;;;;;;14.00;10.40;;;;;;;;;;5071564;28;20440;-75
2022/01/22 03:54:40;;;;;;;12.63;11.30;;;;;;;;;;5071309;28;20483;-76
2022/01/22 03:57:09;;;;;;;14.40;10.50;;;;;;;;;;5071546;28;20433;-76
2022/01/22 03:59:36;;;;;;;14.93;10.10;;;;;;;;;;5071660;28;20521;-76
2022/01/22 04:02:28;;;;;;;14.40;11.60;;;;;;;;;;5071496;28;20921;-75
2022/01/22 04:04:59;;;;;;;12.17;10.90;;;;;;;;;;5071345;28;20473;-77
2022/01/22 04:10:25;;;;;;;13.13;10.67;;;;;;;;;;5014109;28;20480;-75
2022/01/22 04:12:59;;;;;;;16.30;11.10;;;;;;;;;;5010944;28;20439;-76
2022/01/22 04:15:28;;;;;;;14.93;12.00;;;;;;;;;;5039436;28;20461;-77
2022/01/22 04:26:36;;;;;;;13.57;10.10;;;;;;;;;;5058796;28;20412;-75
2022/01/22 04:29:04;;;;;;;12.17;10.53;;;;;;;;;;5095016;28;20481;-76
2022/01/22 04:31:31;;;;;;;11.10;10.00;;;;;;;;;;5095133;28;20463;-77
2022/01/22 04:33:58;;;;;;;14.77;11.00;;;;;;;;;;5093413;28;20487;-74
2022/01/22 04:36:25;;;;;;;12.53;9.90;;;;;;;;;;5093641;28;20437;-75
2022/01/22 04:38:52;;;;;;;11.90;10.70;;;;;;;;;;5093894;28;20453;-75
2022/01/22 04:41:20;;;;;;;13.73;11.20;;;;;;;;;;5093632;28;20444;-75
2022/01/22 04:43:49;;;;;;;13.70;11.30;;;;;;;;;;5073179;28;20827;-76
2022/01/22 04:46:22;;;;;;;12.30;11.00;;;;;;;;;;5071113;28;20442;-75
2022/01/22 04:48:54;;;;;;;14.10;10.97;;;;;;;;;;5070773;28;20496;-75
2022/01/22 04:56:50;;;;;;;11.47;9.77;;;;;;;;;;5071020;28;20405;-76
2022/01/22 04:59:18;;;;;;;11.83;9.97;;;;;;;;;;5071027;28;20477;-76
2022/01/22 05:01:47;;;;;;;11.30;10.13;;;;;;;;;;5071141;28;20452;-76
2022/01/22 05:04:14;;;;;;;12.60;10.63;;;;;;;;;;5070580;28;20474;-76
2022/01/22 05:06:41;;;;;;;12.37;10.30;;;;;;;;;;5071057;28;20499;-77
2022/01/22 05:09:08;;;;;;;11.60;10.40;;;;;;;;;;5071246;28;20477;-77
2022/01/22 05:11:35;;;;;;;13.93;10.57;;;;;;;;;;5070961;28;20434;-76
2022/01/22 05:14:02;;;;;;;12.53;10.90;;;;;;;;;;5070822;28;20445;-79
2022/01/22 05:16:29;;;;;;;14.60;10.00;;;;;;;;;;5071024;28;20558;-78
2022/01/22 05:19:05;;;;;;;13.33;11.80;;;;;;;;;;5070867;28;20454;-76
2022/01/22 05:21:35;;;;;;;12.20;10.93;;;;;;;;;;5070890;28;20448;-78
2022/01/22 05:24:06;;;;;;;15.23;11.13;;;;;;;;;;5070021;28;20577;-75
2022/01/22 05:29:52;;;;;;;14.20;11.00;;;;;;;;;;5054538;28;20817;-76
2022/01/22 05:32:27;;;;;;;12.37;10.70;;;;;;;;;;5070442;28;20467;-75
2022/01/22 05:37:40;;;;;;;17.30;12.23;;;;;;;;;;5073107;28;20432;-76
2022/01/22 05:40:07;;;;;;;16.40;11.10;;;;;;;;;;5072769;28;20445;-76
2022/01/22 05:42:36;;;;;;;13.90;11.77;;;;;;;;;;5071778;28;20436;-76
2022/01/22 05:45:03;;;;;;;15.90;12.23;;;;;;;;;;5070288;28;20487;-76
2022/01/22 05:47:30;;;;;;;13.17;11.57;;;;;;;;;;5066140;28;20465;-76
2022/01/22 05:50:00;;;;;;;14.23;11.90;;;;;;;;;;5069159;28;20453;-76
2022/01/22 05:52:33;;;;;;;19.23;10.80;;;;;;;;;;5066360;28;20483;-76
2022/01/22 05:55:25;;;;;;;15.93;11.17;;;;;;;;;;5062116;28;20495;-77
2022/01/22 06:00:37;;;;;;;14.90;10.80;;;;;;;;;;5070216;28;20804;-76
2022/01/22 06:03:04;;;;;;;13.17;10.77;;;;;;;;;;5069642;28;20802;-75
2022/01/22 06:05:32;;;;;;;13.57;11.20;;;;;;;;;;5069860;28;20473;-77
2022/01/22 06:07:59;;;;;;;12.63;10.90;;;;;;;;;;5069839;28;20461;-78
2022/01/22 06:10:28;;;;;;;12.50;11.10;;;;;;;;;;5073119;28;20471;-76
2022/01/22 06:13:11;;;;;;;13.13;10.40;;;;;;;;;;5073007;28;20443;-77
2022/01/22 06:15:38;;;;;;;13.73;10.80;;;;;;;;;;5073694;28;20433;-76
2022/01/22 06:18:05;;;;;;;11.13;10.03;;;;;;;;;;5073266;28;20508;-76
2022/01/22 06:20:34;;;;;;;13.93;10.90;;;;;;;;;;5073704;28;20452;-78
2022/01/22 06:23:02;;;;;;;14.37;11.07;;;;;;;;;;5073259;28;20445;-77
2022/01/22 06:25:29;;;;;;;17.43;11.03;;;;;;;;;;5073245;28;20476;-77
2022/01/22 06:27:57;;;;;;;13.47;11.77;;;;;;;;;;5073154;28;20515;-77
2022/01/22 06:30:24;;;;;;;11.33;9.83;;;;;;;;;;5072839;28;20515;-78
2022/01/22 06:32:51;;;;;;;14.63;10.30;;;;;;;;;;5072921;28;20522;-77
2022/01/22 06:35:18;;;;;;;14.00;10.03;;;;;;;;;;5073127;28;20542;-76
2022/01/22 06:37:46;;;;;;;11.53;9.77;;;;;;;;;;5072963;28;20465;-77
2022/01/22 06:42:58;;;;;;;13.50;9.57;;;;;;;;;;5073078;28;20451;-78
2022/01/22 06:45:25;;;;;;;13.10;10.57;;;;;;;;;;5072888;28;20554;-77
2022/01/22 06:47:52;;;;;;;11.27;9.83;;;;;;;;;;5072973;28;20450;-77
2022/01/22 06:50:21;;;;;;;13.10;10.97;;;;;;;;;;5076940;28;20498;-75
2022/01/22 06:52:56;;;;;;;10.63;8.90;;;;;;;;;;5088782;28;20445;-76
2022/01/22 06:55:30;;;;;;;13.80;10.17;;;;;;;;;;5097697;28;20429;-76
2022/01/22 06:57:57;;;;;;;11.03;9.80;;;;;;;;;;5094561;28;20579;-77
2022/01/22 07:00:24;;;;;;;14.27;10.10;;;;;;;;;;5097691;28;20429;-77
2022/01/22 07:02:51;;;;;;;13.40;11.30;;;;;;;;;;5097664;28;20441;-77
2022/01/22 07:05:19;;;;;;;11.80;9.83;;;;;;;;;;5097332;28;20530;-74
2022/01/22 07:07:46;;;;;;;17.17;9.77;;;;;;;;;;5091782;28;20491;-77
2022/01/22 07:10:14;;;;;;;10.67;9.50;;;;;;;;;;5093033;28;20441;-76
2022/01/22 07:12:41;;;;;;;13.03;9.03;;;;;;;;;;5092282;28;20442;-75
2022/01/22 07:15:08;;;;;;;15.73;9.90;;;;;;;;;;5095039;28;20480;-76
2022/01/22 07:17:37;;;;;;;12.10;9.20;;;;;;;;;;5093826;28;20465;-76
2022/01/22 07:20:05;;;;;;;10.57;9.43;;;;;;;;;;5098752;28;20421;-77
2022/01/22 07:22:38;;;;;;;11.90;9.90;;;;;;;;;;5098645;28;20425;-76
2022/01/22 07:25:06;;;;;;;10.73;9.07;;;;;;;;;;5087067;28;20483;-76
2022/01/22 07:27:34;;;;;;;11.07;9.40;;;;;;;;;;5080519;28;20522;-77
2022/01/22 07:30:01;;;;;;;12.80;9.53;;;;;;;;;;5076914;28;20445;-76
2022/01/22 07:32:33;;;;;;;14.07;9.07;;;;;;;;;;5077556;28;20449;-77
2022/01/22 07:35:00;;;;;;;11.50;10.20;;;;;;;;;;5085441;28;20429;-76
2022/01/22 07:37:27;;;;;;;13.03;10.23;;;;;;;;;;5088417;28;20530;-76
2022/01/22 07:39:54;;;;;;;16.03;10.87;;;;;;;;;;5093681;28;20429;-76
2022/01/22 07:42:21;;;;;;;13.93;11.27;;;;;;;;;;5091488;28;20503;-76
2022/01/22 07:44:50;;;;;;;13.57;12.13;;;;;;;;;;5078748;28;20832;-76
2022/01/22 07:47:17;;;;;;;10.07;9.07;;;;;;;;;;5075791;28;20445;-77
2022/01/22 07:49:44;;;;;;;14.80;11.23;;;;;;;;;;5078296;28;20452;-76
2022/01/22 07:52:11;;;;;;;11.30;10.20;;;;;;;;;;5081475;28;20449;-76
2022/01/22 07:54:38;;;;;;;20.00;10.43;;;;;;;;;;5083874;28;20453;-76
2022/01/22 07:57:05;;;;;;;11.77;9.40;;;;;;;;;;5081862;28;20449;-76
2022/01/22 07:59:33;;;;;;;13.07;9.83;;;;;;;;;;5082653;28;20455;-75
2022/01/22 08:02:02;;;;;;;12.60;10.10;;;;;;;;;;5090722;28;20434;-78
2022/01/22 08:04:29;;;;;;;13.70;10.77;;;;;;;;;;5081679;28;20469;-75
2022/01/22 08:06:58;;;;;;;13.73;10.30;;;;;;;;;;5094469;28;20449;-74
2022/01/22 08:09:25;;;;;;;12.40;10.53;;;;;;;;;;5091217;28;20473;-78
2022/01/22 08:11:52;;;;;;;14.83;9.93;;;;;;;;;;5074031;28;20482;-78
2022/01/22 08:14:19;;;;;;;14.30;10.60;;;;;;;;;;5073208;28;20452;-77
2022/01/22 08:16:48;;;;;;;14.43;10.33;;;;;;;;;;5073199;28;20441;-77
2022/01/22 08:19:17;;;;;;;12.50;10.03;;;;;;;;;;5072909;28;20466;-77
2022/01/22 08:21:45;;;;;;;14.50;10.77;;;;;;;;;;5071402;28;20453;-79
2022/01/22 08:24:13;;;;;;;11.30;10.10;;;;;;;;;;5071018;28;20810;-77
2022/01/22 08:26:45;;;;;;;11.07;9.97;;;;;;;;;;5070966;28;20442;-77
2022/01/22 08:29:12;;;;;;;12.47;11.17;;;;;;;;;;5071117;28;20552;-77
2022/01/22 08:31:48;;;;;;;13.60;10.40;;;;;;;;;;5070816;28;20454;-78
2022/01/22 08:37:01;;;;;;;12.37;11.17;;;;;;;;;;5070494;28;20483;-76
2022/01/22 08:39:28;;;;;;;12.30;9.70;;;;;;;;;;5071319;28;20471;-77
2022/01/22 08:41:56;;;;;;;16.53;11.10;;;;;;;;;;5071796;28;20434;-77
2022/01/22 08:44:23;;;;;;;12.80;11.47;;;;;;;;;;5071790;28;20439;-77
2022/01/22 08:46:50;;;;;;;12.70;10.97;;;;;;;;;;5071886;28;21149;-78
2022/01/22 08:49:18;;;;;;;11.70;10.50;;;;;;;;;;5071705;28;20470;-77
2022/01/22 08:51:45;;;;;;;12.83;9.97;;;;;;;;;;5071802;28;20445;-77
2022/01/22 08:54:12;;;;;;;12.07;10.80;;;;;;;;;;5071292;28;20443;-77
2022/01/22 08:56:40;;;;;;;17.83;11.40;;;;;;;;;;5071919;28;20456;-78
2022/01/22 08:59:07;;;;;;;13.60;10.53;;;;;;;;;;5064716;28;20486;-78
2022/01/22 09:01:35;;;;;;;12.60;11.30;;;;;;;;;;5067850;28;20775;-77
2022/01/22 09:04:02;;;;;;;13.70;11.50;;;;;;;;;;5063280;28;20864;-79
2022/01/22 09:06:30;;;;;;;14.00;10.60;;;;;;;;;;5072249;28;20504;-78
2022/01/22 09:09:07;;;;;;;14.07;10.90;;;;;;;;;;5069168;28;20523;-77
2022/01/22 09:11:34;;;;;;;13.57;11.50;;;;;;;;;;5050702;28;20620;-77
2022/01/22 09:14:01;;;;;;;16.40;11.30;;;;;;;;;;5067967;28;20813;-78
2022/01/22 09:16:28;;;;;;;12.43;10.70;;;;;;;;;;5070952;28;20487;-77
2022/01/22 09:19:00;;;;;;;12.63;11.00;;;;;;;;;;5070576;28;20450;-76
2022/01/22 09:21:27;;;;;;;12.33;11.07;;;;;;;;;;5070527;28;20459;-78
2022/01/22 09:23:56;;;;;;;14.87;10.77;;;;;;;;;;5070553;28;20450;-79
2022/01/22 09:26:23;;;;;;;15.37;10.93;;;;;;;;;;5070699;28;20485;-78
2022/01/22 09:28:50;;;;;;;11.90;10.60;;;;;;;;;;5070938;28;20475;-77
2022/01/22 09:31:17;;;;;;;13.53;11.07;;;;;;;;;;5066782;28;20954;-78
2022/01/22 09:33:44;;;;;;;17.87;11.67;;;;;;;;;;5069329;28;20454;-77
2022/01/22 09:36:11;;;;;;;14.63;11.90;;;;;;;;;;5070596;28;20475;-78
2022/01/22 09:38:39;;;;;;;12.57;10.57;;;;;;;;;;5071010;28;20465;-77
2022/01/22 09:41:07;;;;;;;13.40;10.83;;;;;;;;;;5070353;28;20441;-78
2022/01/22 09:43:34;;;;;;;11.80;9.73;;;;;;;;;;5063868;28;20473;-78
2022/01/22 09:46:01;;;;;;;13.07;10.90;;;;;;;;;;5063240;28;20490;-79
2022/01/22 09:48:28;;;;;;;12.83;11.17;;;;;;;;;;5070282;28;20495;-79
2022/01/22 09:50:55;;;;;;;11.33;10.13;;;;;;;;;;5069682;28;20433;-80
2022/01/22 09:53:23;;;;;;;15.87;12.37;;;;;;;;;;5070083;28;20491;-78
2022/01/22 09:55:51;;;;;;;16.57;10.73;;;;;;;;;;5058996;28;20871;-78
2022/01/22 09:58:19;;;;;;;12.40;10.83;;;;;;;;;;5051599;28;20475;-77
2022/01/22 10:00:46;;;;;;;14.53;11.50;;;;;;;;;;5051739;28;20448;-76
2022/01/22 10:03:18;;;;;;;15.50;10.77;;;;;;;;;;5057004;28;20454;-76
2022/01/22 10:05:45;;;;;;;12.00;9.97;;;;;;;;;;5064006;28;20573;-76
2022/01/22 10:08:19;;;;;;;15.27;11.07;;;;;;;;;;5071556;28;20515;-77
2022/01/22 10:10:47;;;;;;;14.43;9.83;;;;;;;;;;5062305;28;20459;-77
2022/01/22 10:13:15;;;;;;;10.43;9.43;;;;;;;;;;5051091;28;20453;-77
2022/01/22 10:15:43;;;;;;;10.57;9.47;;;;;;;;;;5050927;28;20992;-78
2022/01/22 10:18:10;;;;;;;11.07;9.93;;;;;;;;;;5051117;28;20504;-76
2022/01/22 10:20:40;;;;;;;13.00;10.20;;;;;;;;;;5051439;28;20467;-77
2022/01/22 10:23:15;;;;;;;12.50;9.40;;;;;;;;;;5051595;28;20457;-77
2022/01/22 10:25:46;;;;;;;10.87;9.70;;;;;;;;;;5051762;28;20462;-77
2022/01/22 10:28:19;;;;;;;11.37;8.97;;;;;;;;;;5053553;28;20520;-77
2022/01/22 10:30:51;;;;;;;9.07;8.17;;;;;;;;;;5051707;28;20549;-75
2022/01/22 10:33:29;;;;;;;9.73;8.80;;;;;;;;;;5051284;28;20472;-78
2022/01/22 10:36:08;;;;;;;10.83;9.27;;;;;;;;;;5051077;28;20465;-75
2022/01/22 10:38:39;;;;;;;8.97;8.17;;;;;;;;;;5051178;28;20504;-76
2022/01/22 10:41:07;;;;;;;9.40;8.50;;;;;;;;;;5051351;28;20453;-77
2022/01/22 10:43:41;;;;;;;11.33;9.03;;;;;;;;;;5051818;28;20438;-76
2022/01/22 10:46:13;;;;;;;10.00;9.00;;;;;;;;;;5058828;28;20498;-77
2022/01/22 10:48:42;;;;;;;14.20;9.97;;;;;;;;;;5060904;28;20480;-77
2022/01/22 10:51:10;;;;;;;9.80;8.57;;;;;;;;;;5071848;28;20449;-76
2022/01/22 10:53:43;;;;;;;12.90;9.60;;;;;;;;;;5071579;28;20476;-77
2022/01/22 10:56:10;;;;;;;13.00;8.77;;;;;;;;;;5074960;28;20926;-75
2022/01/22 10:58:48;;;;;;;16.03;10.27;;;;;;;;;;5074899;28;20518;-77
2022/01/22 11:01:16;;;;;;;12.03;10.73;;;;;;;;;;5074969;28;20487;-76
2022/01/22 11:03:43;;;;;;;11.20;10.07;;;;;;;;;;5074555;28;20812;-76
2022/01/22 11:06:26;;;;;;;12.03;10.83;;;;;;;;;;5074688;28;20481;-77
2022/01/22 11:08:53;;;;;;;10.67;9.57;;;;;;;;;;5074223;28;20896;-77
2022/01/22 11:11:20;;;;;;;10.80;9.70;;;;;;;;;;5074449;28;20447;-77
2022/01/22 11:13:47;;;;;;;10.83;9.43;;;;;;;;;;5074072;28;20481;-76
2022/01/22 11:16:17;;;;;;;12.90;10.10;;;;;;;;;;5073848;28;20441;-76
2022/01/22 11:18:45;;;;;;;9.23;8.33;;;;;;;;;;5074119;28;20530;-77
2022/01/22 11:21:12;;;;;;;9.80;8.90;;;;;;;;;;5074059;28;20441;-76
2022/01/22 11:23:39;;;;;;;11.60;9.63;;;;;;;;;;5073806;28;20518;-77
2022/01/22 11:26:07;;;;;;;13.83;10.00;;;;;;;;;;5073809;28;20550;-76
2022/01/22 11:28:35;;;;;;;13.90;10.00;;;;;;;;;;5065826;28;20473;-76
2022/01/22 11:31:03;;;;;;;11.73;9.43;;;;;;;;;;5073548;28;20869;-77
2022/01/22 11:33:33;;;;;;;9.77;8.87;;;;;;;;;;5073841;28;20449;-77
2022/01/22 11:36:03;;;;;;;10.40;9.30;;;;;;;;;;5075434;28;20421;-77
2022/01/22 11:38:32;;;;;;;10.67;9.57;;;;;;;;;;5073712;28;20458;-77
2022/01/22 11:41:06;;;;;;;10.43;9.43;;;;;;;;;;5073207;28;20442;-77
2022/01/22 11:43:59;;;;;;;10.60;9.50;;;;;;;;;;5073522;28;20454;-79
2022/01/22 11:46:29;;;;;;;10.33;9.33;;;;;;;;;;5072396;28;20545;-79
2022/01/22 11:52:18;;;;;;;11.07;9.63;;;;;;;;;;5053672;28;20445;-78
2022/01/22 11:54:52;;;;;;;11.77;10.57;;;;;;;;;;5073376;28;20530;-79
2022/01/22 11:57:19;;;;;;;14.70;12.17;;;;;;;;;;5073120;28;20504;-78
2022/01/22 11:59:46;;;;;;;12.77;10.30;;;;;;;;;;5072698;28;20447;-77
2022/01/22 12:02:14;;;;;;;11.50;9.23;;;;;;;;;;5074042;28;20959;-77
2022/01/22 12:04:49;;;;;;;9.20;8.30;;;;;;;;;;5074432;28;20924;-78
2022/01/22 12:07:17;;;;;;;10.73;8.40;;;;;;;;;;5072512;28;20705;-77
2022/01/22 12:09:52;;;;;;;10.17;8.60;;;;;;;;;;5073642;28;20797;-77
2022/01/22 12:15:10;;;;;;;11.77;8.67;;;;;;;;;;5075004;28;20797;-79
2022/01/22 12:17:59;;;;;;;10.87;8.17;;;;;;;;;;5073134;28;20465;-79
2022/01/22 12:21:30;;;;;;;11.13;7.97;;;;;;;;;;5073711;28;20569;-78
2022/01/22 12:23:49;;;;;;;8.83;7.13;;;;;;;;;;5072269;28;20452;-78
2022/01/22 12:26:37;;;;;;;9.47;7.63;;;;;;;;;;5073437;28;20475;-78
2022/01/22 12:29:25;;;;;;;8.73;7.83;;;;;;;;;;5072388;28;20901;-78
2022/01/22 12:32:10;;;;;;;10.23;8.53;;;;;;;;;;5072474;28;20448;-77
2022/01/22 12:34:57;;;;;;;10.23;8.13;;;;;;;;;;5063782;28;20457;-77
2022/01/22 12:37:25;;;;;;;12.20;8.10;;;;;;;;;;5073164;28;20448;-76
2022/01/22 12:39:54;;;;;;;9.60;7.93;;;;;;;;;;5073436;28;20753;-78
2022/01/22 12:42:30;;;;;;;8.73;7.30;;;;;;;;;;5072939;28;20790;-78
2022/01/22 12:45:00;;;;;;;8.93;8.03;;;;;;;;;;5072719;28;20443;-78
2022/01/22 12:47:28;;;;;;;8.33;7.60;;;;;;;;;;5073088;28;20845;-78
2022/01/22 12:50:03;;;;;;;8.77;7.77;;;;;;;;;;5072865;28;20483;-77
2022/01/22 12:52:30;;;;;;;10.03;8.00;;;;;;;;;;5072953;28;20454;-77
2022/01/22 12:54:59;;;;;;;12.27;8.47;;;;;;;;;;5072650;28;20941;-77
2022/01/22 12:57:27;;;;;;;8.13;7.33;;;;;;;;;;5072627;28;20785;-77
2022/01/22 13:00:01;;;;;;;9.30;7.70;;;;;;;;;;5072372;28;20444;-77
2022/01/22 13:02:38;;;;;;;8.53;7.70;;;;;;;;;;5073000;28;20812;-78
2022/01/22 13:05:05;;;;;;;10.80;9.63;;;;;;;;;;5053284;28;20419;-77
2022/01/22 13:07:38;;;;;;;11.90;8.20;;;;;;;;;;5052773;28;20478;-78
2022/01/22 13:10:07;;;;;;;9.00;8.10;;;;;;;;;;5053300;28;20976;-78
2022/01/22 13:12:35;;;;;;;10.37;8.70;;;;;;;;;;5052259;28;20450;-77
2022/01/22 13:15:02;;;;;;;9.97;8.93;;;;;;;;;;5072293;28;20437;-78
2022/01/22 13:17:30;;;;;;;9.27;8.37;;;;;;;;;;5072026;28;20465;-78
2022/01/22 13:19:58;;;;;;;11.13;9.00;;;;;;;;;;5064073;28;20476;-78
2022/01/22 13:22:31;;;;;;;8.73;7.93;;;;;;;;;;5072128;28;20445;-78
2022/01/22 13:25:04;;;;;;;9.73;8.83;;;;;;;;;;5072255;28;20441;-78
2022/01/22 13:27:32;;;;;;;13.77;9.43;;;;;;;;;;5073349;28;20553;-77
2022/01/22 13:29:59;;;;;;;13.53;9.43;;;;;;;;;;5073273;28;20456;-78
2022/01/22 13:32:41;;;;;;;10.20;8.40;;;;;;;;;;5073883;28;20468;-79
2022/01/22 13:35:21;;;;;;;9.80;8.80;;;;;;;;;;5067432;28;20461;-78
2022/01/22 13:38:19;;;;;;;10.70;9.53;;;;;;;;;;5072919;28;20469;-78
2022/01/22 13:45:01;;;;;;;12.90;9.90;;;;;;;;;;5072650;28;20457;-78
2022/01/22 13:49:25;;;;;;;11.50;9.77;;;;;;;;;;5071601;28;20482;-80
2022/01/22 13:51:54;;;;;;;10.43;9.40;;;;;;;;;;5071007;28;20801;-79
2022/01/22 13:54:27;;;;;;;11.47;9.77;;;;;;;;;;5073880;28;20443;-79
2022/01/22 13:56:57;;;;;;;12.37;9.67;;;;;;;;;;5073133;28;20475;-78
2022/01/22 13:59:25;;;;;;;11.00;8.83;;;;;;;;;;5072304;28;20476;-79
2022/01/22 14:02:07;;;;;;;13.83;9.77;;;;;;;;;;5072149;28;20473;-79
2022/01/22 14:04:41;;;;;;;16.03;13.50;;;;;;;;;;5071823;28;20450;-78
2022/01/22 14:07:25;;;;;;;13.87;11.90;;;;;;;;;;5071866;28;20476;-79
2022/01/22 14:09:56;;;;;;;13.90;10.27;;;;;;;;;;5072224;28;20465;-78
2022/01/22 14:12:25;;;;;;;12.53;11.10;;;;;;;;;;5072052;28;20498;-77
2022/01/22 14:14:56;;;;;;;15.03;10.93;;;;;;;;;;5071595;28;20445;-78
2022/01/22 14:17:25;;;;;;;11.50;10.30;;;;;;;;;;5054051;28;20523;-78
2022/01/22 14:19:58;;;;;;;11.67;10.40;;;;;;;;;;5069149;28;20532;-79
2022/01/22 14:22:27;;;;;;;14.47;10.70;;;;;;;;;;5070975;28;20442;-79
2022/01/22 14:25:09;;;;;;;13.90;11.67;;;;;;;;;;5071057;28;20457;-78
2022/01/22 14:27:36;;;;;;;16.33;11.27;;;;;;;;;;5072227;28;20476;-77
2022/01/22 14:30:03;;;;;;;12.40;10.90;;;;;;;;;;5073830;28;20507;-79
2022/01/22 14:32:30;;;;;;;16.97;11.53;;;;;;;;;;5074982;28;20862;-79
2022/01/22 14:34:59;;;;;;;13.77;11.17;;;;;;;;;;5076107;28;20454;-79
2022/01/22 14:37:30;;;;;;;11.97;10.73;;;;;;;;;;5075444;28;20803;-78
2022/01/22 14:45:29;;;;;;;14.27;11.50;;;;;;;;;;5076488;28;20433;-79
2022/01/22 14:47:58;;;;;;;15.33;10.60;;;;;;;;;;5076077;28;20484;-79
2022/01/22 14:50:25;;;;;;;16.80;11.50;;;;;;;;;;5075282;28;20443;-79
2022/01/22 14:52:56;;;;;;;13.37;11.77;;;;;;;;;;5075049;28;20449;-78
2022/01/22 14:55:23;;;;;;;14.33;12.20;;;;;;;;;;5075774;28;20453;-79
2022/01/22 14:57:50;;;;;;;13.50;11.23;;;;;;;;;;5075330;28;20461;-78
2022/01/22 15:00:18;;;;;;;14.87;12.00;;;;;;;;;;5075969;28;20487;-79
2022/01/22 15:02:45;;;;;;;14.93;12.03;;;;;;;;;;5073262;28;20489;-79
2022/01/22 15:05:13;;;;;;;14.00;11.90;;;;;;;;;;5055092;28;20452;-78
2022/01/22 15:07:41;;;;;;;12.40;11.10;;;;;;;;;;5054831;28;20539;-79
2022/01/22 15:10:10;;;;;;;11.40;10.30;;;;;;;;;;5055044;28;20465;-78
2022/01/22 15:12:38;;;;;;;13.90;11.33;;;;;;;;;;5054249;28;20496;-79
2022/01/22 15:15:06;;;;;;;13.17;10.67;;;;;;;;;;5055466;28;20441;-79
2022/01/22 15:17:52;;;;;;;14.23;11.20;;;;;;;;;;5054881;28;20844;-79
2022/01/22 15:20:19;;;;;;;12.37;10.00;;;;;;;;;;5055254;28;20995;-78
2022/01/22 15:22:46;;;;;;;12.50;11.20;;;;;;;;;;5054085;28;20610;-79
2022/01/22 15:25:15;;;;;;;12.20;10.30;;;;;;;;;;5055180;28;20514;-79
2022/01/22 15:27:42;;;;;;;11.33;10.03;;;;;;;;;;5054403;28;20486;-78
2022/01/22 15:30:19;;;;;;;11.93;10.17;;;;;;;;;;5054439;28;20453;-79
2022/01/22 15:32:50;;;;;;;11.73;9.13;;;;;;;;;;5054635;28;20449;-78
2022/01/22 15:35:18;;;;;;;12.73;9.47;;;;;;;;;;5054271;28;20953;-78
2022/01/22 15:37:50;;;;;;;16.40;10.33;;;;;;;;;;5053944;28;20456;-78
2022/01/22 15:40:19;;;;;;;13.53;11.60;;;;;;;;;;5054060;28;20506;-78
2022/01/22 15:42:47;;;;;;;12.00;10.40;;;;;;;;;;5053298;28;20827;-79
2022/01/22 15:45:14;;;;;;;14.50;11.37;;;;;;;;;;5053776;28;20438;-79
2022/01/22 15:47:41;;;;;;;12.73;10.77;;;;;;;;;;5053511;28;20496;-79
2022/01/22 15:50:09;;;;;;;14.90;11.20;;;;;;;;;;5053480;28;20450;-78
2022/01/22 15:52:36;;;;;;;17.90;12.37;;;;;;;;;;5053792;28;20440;-79
2022/01/22 15:55:08;;;;;;;15.50;11.90;;;;;;;;;;5053432;28;20442;-78
2022/01/22 15:57:36;;;;;;;14.40;11.67;;;;;;;;;;5053238;28;20468;-78